sensor_id;sensor_type;location;lat;lon;timestamp;P1;durP1;ratioP1;P2;durP2;ratioP2
1214;SDS011;597;51.998;5.880;2022-08-04T00:00:07;6.40;;;4.97;;
1214;SDS011;597;51.998;5.880;2022-08-04T00:05:03;8.10;;;4.60;;
1214;SDS011;597;51.998;5.880;2022-08-04T00:07:39;9.63;;;5.60;;
1214;SDS011;597;51.998;5.880;2022-08-04T00:10:05;8.20;;;5.50;;
1214;SDS011;597;51.998;5.880;2022-08-04T00:12:32;10.23;;;6.00;;
1214;SDS011;597;51.998;5.880;2022-08-04T00:14:58;6.47;;;4.50;;
1214;SDS011;597;51.998;5.880;2022-08-04T00:17:25;7.37;;;5.87;;
1214;SDS011;597;51.998;5.880;2022-08-04T00:19:55;5.30;;;4.60;;
1214;SDS011;597;51.998;5.880;2022-08-04T00:22:22;10.93;;;5.50;;
1214;SDS011;597;51.998;5.880;2022-08-04T00:24:50;14.10;;;6.10;;
1214;SDS011;597;51.998;5.880;2022-08-04T00:27:15;8.10;;;4.83;;
1214;SDS011;597;51.998;5.880;2022-08-04T00:29:41;15.93;;;5.43;;
1214;SDS011;597;51.998;5.880;2022-08-04T00:32:07;8.80;;;5.90;;
1214;SDS011;597;51.998;5.880;2022-08-04T00:34:32;12.23;;;4.97;;
1214;SDS011;597;51.998;5.880;2022-08-04T00:36:57;11.23;;;5.10;;
1214;SDS011;597;51.998;5.880;2022-08-04T00:39:23;14.63;;;5.53;;
1214;SDS011;597;51.998;5.880;2022-08-04T00:44:23;8.30;;;5.30;;
1214;SDS011;597;51.998;5.880;2022-08-04T00:49:51;5.80;;;5.20;;
1214;SDS011;597;51.998;5.880;2022-08-04T00:55:13;11.07;;;4.83;;
1214;SDS011;597;51.998;5.880;2022-08-04T01:00:12;8.80;;;5.60;;
1214;SDS011;597;51.998;5.880;2022-08-04T01:10:45;10.63;;;5.00;;
1214;SDS011;597;51.998;5.880;2022-08-04T01:18:30;7.80;;;4.87;;
1214;SDS011;597;51.998;5.880;2022-08-04T01:24:01;9.07;;;5.90;;
1214;SDS011;597;51.998;5.880;2022-08-04T01:29:07;11.88;;;5.72;;
1214;SDS011;597;51.998;5.880;2022-08-04T01:34:02;6.00;;;5.13;;
1214;SDS011;597;51.998;5.880;2022-08-04T01:36:30;7.33;;;5.30;;
1214;SDS011;597;51.998;5.880;2022-08-04T01:38:57;8.33;;;4.73;;
1214;SDS011;597;51.998;5.880;2022-08-04T01:41:22;11.83;;;6.07;;
1214;SDS011;597;51.998;5.880;2022-08-04T01:43:48;9.27;;;5.30;;
1214;SDS011;597;51.998;5.880;2022-08-04T01:46:18;8.37;;;4.70;;
1214;SDS011;597;51.998;5.880;2022-08-04T01:48:45;11.93;;;5.40;;
1214;SDS011;597;51.998;5.880;2022-08-04T01:51:11;7.40;;;5.17;;
1214;SDS011;597;51.998;5.880;2022-08-04T01:53:37;10.37;;;5.43;;
1214;SDS011;597;51.998;5.880;2022-08-04T01:56:03;9.50;;;6.03;;
1214;SDS011;597;51.998;5.880;2022-08-04T01:58:30;16.90;;;6.13;;
1214;SDS011;597;51.998;5.880;2022-08-04T02:03:26;7.33;;;5.20;;
1214;SDS011;597;51.998;5.880;2022-08-04T02:05:52;10.60;;;5.53;;
1214;SDS011;597;51.998;5.880;2022-08-04T02:11:05;10.63;;;5.20;;
1214;SDS011;597;51.998;5.880;2022-08-04T02:13:35;10.10;;;5.80;;
1214;SDS011;597;51.998;5.880;2022-08-04T02:16:03;6.40;;;5.30;;
1214;SDS011;597;51.998;5.880;2022-08-04T02:18:41;12.07;;;5.30;;
1214;SDS011;597;51.998;5.880;2022-08-04T02:21:10;6.90;;;5.30;;
1214;SDS011;597;51.998;5.880;2022-08-04T02:23:38;10.20;;;5.43;;
1214;SDS011;597;51.998;5.880;2022-08-04T02:26:12;7.60;;;5.10;;
1214;SDS011;597;51.998;5.880;2022-08-04T02:33:30;10.07;;;5.13;;
1214;SDS011;597;51.998;5.880;2022-08-04T02:35:58;9.30;;;4.87;;
1214;SDS011;597;51.998;5.880;2022-08-04T02:41:05;7.63;;;4.80;;
1214;SDS011;597;51.998;5.880;2022-08-04T02:43:33;14.60;;;5.30;;
1214;SDS011;597;51.998;5.880;2022-08-04T02:45:59;10.37;;;5.60;;
1214;SDS011;597;51.998;5.880;2022-08-04T02:48:26;11.13;;;6.60;;
1214;SDS011;597;51.998;5.880;2022-08-04T02:50:52;10.30;;;5.17;;
1214;SDS011;597;51.998;5.880;2022-08-04T02:53:17;6.73;;;4.80;;
1214;SDS011;597;51.998;5.880;2022-08-04T02:55:43;12.60;;;7.50;;
1214;SDS011;597;51.998;5.880;2022-08-04T02:58:08;11.80;;;5.40;;
1214;SDS011;597;51.998;5.880;2022-08-04T03:00:34;8.53;;;4.70;;
1214;SDS011;597;51.998;5.880;2022-08-04T03:05:43;11.17;;;5.13;;
1214;SDS011;597;51.998;5.880;2022-08-04T03:13:35;9.27;;;4.90;;
1214;SDS011;597;51.998;5.880;2022-08-04T03:21:40;8.40;;;5.30;;
1214;SDS011;597;51.998;5.880;2022-08-04T03:24:15;9.90;;;5.30;;
1214;SDS011;597;51.998;5.880;2022-08-04T03:32:37;10.30;;;5.83;;
1214;SDS011;597;51.998;5.880;2022-08-04T03:35:16;8.27;;;5.63;;
1214;SDS011;597;51.998;5.880;2022-08-04T03:40:33;9.40;;;4.90;;
1214;SDS011;597;51.998;5.880;2022-08-04T03:45:38;12.93;;;5.27;;
1214;SDS011;597;51.998;5.880;2022-08-04T03:53:45;11.73;;;5.57;;
1214;SDS011;597;51.998;5.880;2022-08-04T03:56:19;10.67;;;5.63;;
1214;SDS011;597;51.998;5.880;2022-08-04T04:03:51;14.83;;;5.37;;
1214;SDS011;597;51.998;5.880;2022-08-04T04:12:06;10.60;;;5.73;;
1214;SDS011;597;51.998;5.880;2022-08-04T04:24:53;8.80;;;5.00;;
1214;SDS011;597;51.998;5.880;2022-08-04T04:30:05;9.57;;;5.33;;
1214;SDS011;597;51.998;5.880;2022-08-04T04:35:19;10.40;;;5.10;;
1214;SDS011;597;51.998;5.880;2022-08-04T04:43:00;14.10;;;5.20;;
1214;SDS011;597;51.998;5.880;2022-08-04T04:45:37;10.97;;;6.07;;
1214;SDS011;597;51.998;5.880;2022-08-04T04:48:08;11.33;;;6.93;;
1214;SDS011;597;51.998;5.880;2022-08-04T04:50:44;8.63;;;5.40;;
1214;SDS011;597;51.998;5.880;2022-08-04T04:56:18;7.87;;;4.60;;
1214;SDS011;597;51.998;5.880;2022-08-04T04:58:40;13.50;;;5.47;;
1214;SDS011;597;51.998;5.880;2022-08-04T05:11:45;11.80;;;6.43;;
1214;SDS011;597;51.998;5.880;2022-08-04T05:14:20;9.27;;;8.10;;
1214;SDS011;597;51.998;5.880;2022-08-04T05:16:50;17.60;;;7.80;;
1214;SDS011;597;51.998;5.880;2022-08-04T05:24:47;9.50;;;7.63;;
1214;SDS011;597;51.998;5.880;2022-08-04T05:27:18;13.40;;;7.60;;
1214;SDS011;597;51.998;5.880;2022-08-04T05:29:51;9.60;;;8.40;;
1214;SDS011;597;51.998;5.880;2022-08-04T05:32:19;12.20;;;7.77;;
1214;SDS011;597;51.998;5.880;2022-08-04T05:34:48;10.17;;;7.57;;
1214;SDS011;597;51.998;5.880;2022-08-04T05:37:17;12.90;;;8.40;;
1214;SDS011;597;51.998;5.880;2022-08-04T05:39:47;9.40;;;7.50;;
1214;SDS011;597;51.998;5.880;2022-08-04T05:42:13;11.43;;;7.73;;
1214;SDS011;597;51.998;5.880;2022-08-04T05:44:39;14.30;;;8.07;;
1214;SDS011;597;51.998;5.880;2022-08-04T05:47:05;14.83;;;7.63;;
1214;SDS011;597;51.998;5.880;2022-08-04T05:49:30;14.67;;;7.77;;
1214;SDS011;597;51.998;5.880;2022-08-04T05:52:00;11.80;;;8.50;;
1214;SDS011;597;51.998;5.880;2022-08-04T05:54:25;9.77;;;7.73;;
1214;SDS011;597;51.998;5.880;2022-08-04T05:56:51;10.83;;;8.73;;
1214;SDS011;597;51.998;5.880;2022-08-04T05:59:17;18.70;;;8.47;;
1214;SDS011;597;51.998;5.880;2022-08-04T06:01:43;14.87;;;8.43;;
1214;SDS011;597;51.998;5.880;2022-08-04T06:04:10;16.40;;;8.30;;
1214;SDS011;597;51.998;5.880;2022-08-04T06:06:36;16.60;;;8.80;;
1214;SDS011;597;51.998;5.880;2022-08-04T06:09:02;14.57;;;7.80;;
1214;SDS011;597;51.998;5.880;2022-08-04T06:11:27;9.37;;;7.30;;
1214;SDS011;597;51.998;5.880;2022-08-04T06:13:54;14.77;;;8.83;;
1214;SDS011;597;51.998;5.880;2022-08-04T06:16:21;11.50;;;7.33;;
1214;SDS011;597;51.998;5.880;2022-08-04T06:18:48;13.10;;;7.57;;
1214;SDS011;597;51.998;5.880;2022-08-04T06:21:13;11.80;;;7.40;;
1214;SDS011;597;51.998;5.880;2022-08-04T06:23:40;12.97;;;7.60;;
1214;SDS011;597;51.998;5.880;2022-08-04T06:26:06;17.20;;;7.17;;
1214;SDS011;597;51.998;5.880;2022-08-04T06:28:33;12.50;;;7.23;;
1214;SDS011;597;51.998;5.880;2022-08-04T06:30:59;14.30;;;7.17;;
1214;SDS011;597;51.998;5.880;2022-08-04T06:33:30;12.27;;;7.30;;
1214;SDS011;597;51.998;5.880;2022-08-04T06:35:58;10.03;;;7.07;;
1214;SDS011;597;51.998;5.880;2022-08-04T06:38:24;14.33;;;7.63;;
1214;SDS011;597;51.998;5.880;2022-08-04T06:40:51;12.57;;;8.47;;
1214;SDS011;597;51.998;5.880;2022-08-04T06:43:17;14.63;;;7.23;;
1214;SDS011;597;51.998;5.880;2022-08-04T06:45:42;11.13;;;7.17;;
1214;SDS011;597;51.998;5.880;2022-08-04T06:48:09;7.90;;;6.10;;
1214;SDS011;597;51.998;5.880;2022-08-04T06:50:36;11.23;;;7.00;;
1214;SDS011;597;51.998;5.880;2022-08-04T06:53:02;12.53;;;7.13;;
1214;SDS011;597;51.998;5.880;2022-08-04T06:55:27;14.30;;;7.60;;
1214;SDS011;597;51.998;5.880;2022-08-04T06:57:52;13.87;;;7.87;;
1214;SDS011;597;51.998;5.880;2022-08-04T07:00:18;12.47;;;6.40;;
1214;SDS011;597;51.998;5.880;2022-08-04T07:02:48;14.73;;;8.30;;
1214;SDS011;597;51.998;5.880;2022-08-04T07:05:13;16.93;;;6.80;;
1214;SDS011;597;51.998;5.880;2022-08-04T07:07:39;10.20;;;6.87;;
1214;SDS011;597;51.998;5.880;2022-08-04T07:10:05;13.17;;;7.27;;
1214;SDS011;597;51.998;5.880;2022-08-04T07:12:30;13.30;;;7.30;;
1214;SDS011;597;51.998;5.880;2022-08-04T07:14:56;14.73;;;5.97;;
1214;SDS011;597;51.998;5.880;2022-08-04T07:17:22;17.03;;;6.43;;
1214;SDS011;597;51.998;5.880;2022-08-04T07:19:47;9.53;;;6.20;;
1214;SDS011;597;51.998;5.880;2022-08-04T07:22:12;15.13;;;5.60;;
1214;SDS011;597;51.998;5.880;2022-08-04T07:24:40;12.30;;;6.37;;
1214;SDS011;597;51.998;5.880;2022-08-04T07:27:05;15.10;;;5.97;;
1214;SDS011;597;51.998;5.880;2022-08-04T07:29:31;14.30;;;6.00;;
1214;SDS011;597;51.998;5.880;2022-08-04T07:31:57;12.50;;;5.63;;
1214;SDS011;597;51.998;5.880;2022-08-04T07:34:22;14.67;;;5.63;;
1214;SDS011;597;51.998;5.880;2022-08-04T07:36:49;11.00;;;5.47;;
1214;SDS011;597;51.998;5.880;2022-08-04T07:39:14;10.33;;;6.00;;
1214;SDS011;597;51.998;5.880;2022-08-04T07:41:40;13.90;;;5.53;;
1214;SDS011;597;51.998;5.880;2022-08-04T07:44:06;8.60;;;5.27;;
1214;SDS011;597;51.998;5.880;2022-08-04T07:46:31;15.70;;;5.07;;
1214;SDS011;597;51.998;5.880;2022-08-04T07:48:58;10.30;;;4.80;;
1214;SDS011;597;51.998;5.880;2022-08-04T07:51:23;11.63;;;4.20;;
1214;SDS011;597;51.998;5.880;2022-08-04T07:53:49;9.77;;;4.93;;
1214;SDS011;597;51.998;5.880;2022-08-04T07:56:14;11.77;;;6.33;;
1214;SDS011;597;51.998;5.880;2022-08-04T07:58:40;9.50;;;5.20;;
1214;SDS011;597;51.998;5.880;2022-08-04T08:01:05;10.17;;;4.23;;
1214;SDS011;597;51.998;5.880;2022-08-04T08:03:30;14.47;;;4.90;;
1214;SDS011;597;51.998;5.880;2022-08-04T08:05:55;14.07;;;4.20;;
1214;SDS011;597;51.998;5.880;2022-08-04T08:08:20;7.13;;;4.27;;
1214;SDS011;597;51.998;5.880;2022-08-04T08:10:46;8.63;;;4.60;;
1214;SDS011;597;51.998;5.880;2022-08-04T08:13:12;10.87;;;5.60;;
1214;SDS011;597;51.998;5.880;2022-08-04T08:15:37;13.47;;;4.67;;
1214;SDS011;597;51.998;5.880;2022-08-04T08:18:03;11.10;;;4.43;;
1214;SDS011;597;51.998;5.880;2022-08-04T08:20:29;8.33;;;4.03;;
1214;SDS011;597;51.998;5.880;2022-08-04T08:22:54;11.47;;;4.63;;
1214;SDS011;597;51.998;5.880;2022-08-04T08:25:20;11.27;;;5.03;;
1214;SDS011;597;51.998;5.880;2022-08-04T08:27:45;9.60;;;5.20;;
1214;SDS011;597;51.998;5.880;2022-08-04T08:30:10;10.40;;;4.57;;
1214;SDS011;597;51.998;5.880;2022-08-04T08:32:36;12.10;;;5.00;;
1214;SDS011;597;51.998;5.880;2022-08-04T08:35:01;11.73;;;5.37;;
1214;SDS011;597;51.998;5.880;2022-08-04T08:37:31;12.13;;;4.57;;
1214;SDS011;597;51.998;5.880;2022-08-04T08:40:23;14.17;;;4.70;;
1214;SDS011;597;51.998;5.880;2022-08-04T08:56:23;13.23;;;5.10;;
1214;SDS011;597;51.998;5.880;2022-08-04T09:14:53;13.50;;;5.20;;
1214;SDS011;597;51.998;5.880;2022-08-04T09:17:42;14.70;;;6.10;;
1214;SDS011;597;51.998;5.880;2022-08-04T09:20:15;10.40;;;4.70;;
1214;SDS011;597;51.998;5.880;2022-08-04T09:22:44;11.83;;;5.07;;
1214;SDS011;597;51.998;5.880;2022-08-04T09:25:33;12.07;;;6.33;;
1214;SDS011;597;51.998;5.880;2022-08-04T09:28:02;12.13;;;7.30;;
1214;SDS011;597;51.998;5.880;2022-08-04T09:30:31;15.73;;;6.60;;
1214;SDS011;597;51.998;5.880;2022-08-04T09:33:09;13.40;;;7.40;;
1214;SDS011;597;51.998;5.880;2022-08-04T09:35:46;10.13;;;6.20;;
1214;SDS011;597;51.998;5.880;2022-08-04T09:38:18;12.57;;;6.90;;
1214;SDS011;597;51.998;5.880;2022-08-04T09:46:18;7.87;;;5.63;;
1214;SDS011;597;51.998;5.880;2022-08-04T09:48:58;17.07;;;6.90;;
1214;SDS011;597;51.998;5.880;2022-08-04T09:54:11;10.83;;;6.33;;
1214;SDS011;597;51.998;5.880;2022-08-04T09:56:40;7.87;;;5.03;;
1214;SDS011;597;51.998;5.880;2022-08-04T10:01:53;9.27;;;5.70;;
1214;SDS011;597;51.998;5.880;2022-08-04T10:04:18;9.10;;;5.10;;
1214;SDS011;597;51.998;5.880;2022-08-04T10:17:00;3.23;;;2.93;;
1214;SDS011;597;51.998;5.880;2022-08-04T10:19:33;7.40;;;3.73;;
1214;SDS011;597;51.998;5.880;2022-08-04T10:22:05;9.37;;;4.77;;
1214;SDS011;597;51.998;5.880;2022-08-04T10:27:06;6.50;;;2.90;;
1214;SDS011;597;51.998;5.880;2022-08-04T10:29:37;7.77;;;4.63;;
1214;SDS011;597;51.998;5.880;2022-08-04T10:37:22;12.03;;;4.70;;
1214;SDS011;597;51.998;5.880;2022-08-04T10:42:36;8.87;;;4.33;;
1214;SDS011;597;51.998;5.880;2022-08-04T10:47:35;8.97;;;4.07;;
1214;SDS011;597;51.998;5.880;2022-08-04T10:50:02;16.03;;;3.83;;
1214;SDS011;597;51.998;5.880;2022-08-04T10:57:25;10.30;;;4.57;;
1214;SDS011;597;51.998;5.880;2022-08-04T10:59:55;7.10;;;4.13;;
1214;SDS011;597;51.998;5.880;2022-08-04T11:05:11;10.70;;;4.53;;
1214;SDS011;597;51.998;5.880;2022-08-04T11:07:36;12.83;;;6.33;;
1214;SDS011;597;51.998;5.880;2022-08-04T11:10:04;10.70;;;5.07;;
1214;SDS011;597;51.998;5.880;2022-08-04T11:12:30;10.50;;;4.60;;
1214;SDS011;597;51.998;5.880;2022-08-04T11:15:08;7.33;;;4.43;;
1214;SDS011;597;51.998;5.880;2022-08-04T11:17:35;12.30;;;5.70;;
1214;SDS011;597;51.998;5.880;2022-08-04T11:22:27;12.87;;;5.50;;
1214;SDS011;597;51.998;5.880;2022-08-04T11:30:12;11.70;;;6.43;;
1214;SDS011;597;51.998;5.880;2022-08-04T11:32:42;13.80;;;5.80;;
1214;SDS011;597;51.998;5.880;2022-08-04T11:35:11;14.03;;;6.33;;
1214;SDS011;597;51.998;5.880;2022-08-04T11:37:44;8.57;;;5.30;;
1214;SDS011;597;51.998;5.880;2022-08-04T11:40:12;10.50;;;5.47;;
1214;SDS011;597;51.998;5.880;2022-08-04T11:42:49;9.07;;;6.03;;
1214;SDS011;597;51.998;5.880;2022-08-04T11:45:17;14.97;;;6.30;;
1214;SDS011;597;51.998;5.880;2022-08-04T11:47:47;14.03;;;6.30;;
1214;SDS011;597;51.998;5.880;2022-08-04T11:50:21;10.90;;;6.53;;
1214;SDS011;597;51.998;5.880;2022-08-04T11:52:49;11.17;;;5.20;;
1214;SDS011;597;51.998;5.880;2022-08-04T11:55:17;9.40;;;5.53;;
1214;SDS011;597;51.998;5.880;2022-08-04T11:57:45;10.80;;;6.47;;
1214;SDS011;597;51.998;5.880;2022-08-04T12:00:11;6.70;;;5.27;;
1214;SDS011;597;51.998;5.880;2022-08-04T12:05:03;8.60;;;5.47;;
1214;SDS011;597;51.998;5.880;2022-08-04T12:13:19;9.43;;;7.23;;
1214;SDS011;597;51.998;5.880;2022-08-04T12:20:46;9.07;;;5.40;;
1214;SDS011;597;51.998;5.880;2022-08-04T12:23:23;7.93;;;4.67;;
1214;SDS011;597;51.998;5.880;2022-08-04T12:25:49;9.40;;;5.67;;
1214;SDS011;597;51.998;5.880;2022-08-04T12:28:35;23.13;;;5.73;;
1214;SDS011;597;51.998;5.880;2022-08-04T12:31:03;9.50;;;6.10;;
1214;SDS011;597;51.998;5.880;2022-08-04T12:33:33;10.70;;;5.27;;
1214;SDS011;597;51.998;5.880;2022-08-04T12:36:06;15.73;;;5.50;;
1214;SDS011;597;51.998;5.880;2022-08-04T12:38:32;7.30;;;4.37;;
1214;SDS011;597;51.998;5.880;2022-08-04T12:40:59;9.50;;;4.50;;
1214;SDS011;597;51.998;5.880;2022-08-04T12:45:59;12.93;;;4.77;;
1214;SDS011;597;51.998;5.880;2022-08-04T12:48:26;9.30;;;5.00;;
1214;SDS011;597;51.998;5.880;2022-08-04T12:50:53;6.50;;;4.37;;
1214;SDS011;597;51.998;5.880;2022-08-04T12:53:19;8.60;;;4.20;;
1214;SDS011;597;51.998;5.880;2022-08-04T12:55:47;13.50;;;5.37;;
1214;SDS011;597;51.998;5.880;2022-08-04T12:58:17;8.10;;;4.90;;
1214;SDS011;597;51.998;5.880;2022-08-04T13:00:43;5.27;;;4.70;;
1214;SDS011;597;51.998;5.880;2022-08-04T13:03:13;8.80;;;4.93;;
1214;SDS011;597;51.998;5.880;2022-08-04T13:05:39;9.40;;;4.03;;
1214;SDS011;597;51.998;5.880;2022-08-04T13:08:05;13.87;;;5.67;;
1214;SDS011;597;51.998;5.880;2022-08-04T13:10:36;6.30;;;3.20;;
1214;SDS011;597;51.998;5.880;2022-08-04T13:13:02;5.70;;;3.57;;
1214;SDS011;597;51.998;5.880;2022-08-04T13:15:27;11.50;;;4.40;;
1214;SDS011;597;51.998;5.880;2022-08-04T13:17:56;10.13;;;3.97;;
1214;SDS011;597;51.998;5.880;2022-08-04T13:20:28;6.07;;;3.60;;
1214;SDS011;597;51.998;5.880;2022-08-04T13:25:28;4.90;;;3.50;;
1214;SDS011;597;51.998;5.880;2022-08-04T13:27:55;7.63;;;3.20;;
1214;SDS011;597;51.998;5.880;2022-08-04T13:30:20;4.03;;;3.20;;
1214;SDS011;597;51.998;5.880;2022-08-04T13:32:46;4.63;;;3.33;;
1214;SDS011;597;51.998;5.880;2022-08-04T13:35:11;3.30;;;3.00;;
1214;SDS011;597;51.998;5.880;2022-08-04T13:37:37;6.23;;;3.10;;
1214;SDS011;597;51.998;5.880;2022-08-04T13:40:03;7.60;;;3.50;;
1214;SDS011;597;51.998;5.880;2022-08-04T13:42:29;6.97;;;3.80;;
1214;SDS011;597;51.998;5.880;2022-08-04T13:44:56;7.73;;;3.93;;
1214;SDS011;597;51.998;5.880;2022-08-04T13:47:23;5.03;;;2.90;;
1214;SDS011;597;51.998;5.880;2022-08-04T13:52:33;5.80;;;3.00;;
1214;SDS011;597;51.998;5.880;2022-08-04T13:54:59;5.10;;;3.43;;
1214;SDS011;597;51.998;5.880;2022-08-04T13:57:31;5.23;;;2.97;;
1214;SDS011;597;51.998;5.880;2022-08-04T13:59:58;5.37;;;3.50;;
1214;SDS011;597;51.998;5.880;2022-08-04T14:02:32;7.00;;;4.37;;
1214;SDS011;597;51.998;5.880;2022-08-04T14:05:00;5.70;;;4.70;;
1214;SDS011;597;51.998;5.880;2022-08-04T14:07:27;4.20;;;3.40;;
1214;SDS011;597;51.998;5.880;2022-08-04T14:09:53;4.83;;;3.60;;
1214;SDS011;597;51.998;5.880;2022-08-04T14:12:19;12.47;;;4.70;;
1214;SDS011;597;51.998;5.880;2022-08-04T14:14:51;4.73;;;2.80;;
1214;SDS011;597;51.998;5.880;2022-08-04T14:17:18;6.53;;;2.93;;
1214;SDS011;597;51.998;5.880;2022-08-04T14:19:50;4.00;;;2.90;;
1214;SDS011;597;51.998;5.880;2022-08-04T14:24:57;7.00;;;2.90;;
1214;SDS011;597;51.998;5.880;2022-08-04T14:27:22;5.00;;;3.50;;
1214;SDS011;597;51.998;5.880;2022-08-04T14:29:48;9.13;;;3.33;;
1214;SDS011;597;51.998;5.880;2022-08-04T14:32:13;5.07;;;3.03;;
1214;SDS011;597;51.998;5.880;2022-08-04T14:34:39;3.60;;;3.13;;
1214;SDS011;597;51.998;5.880;2022-08-04T14:37:08;7.20;;;2.93;;
1214;SDS011;597;51.998;5.880;2022-08-04T14:42:05;3.90;;;2.53;;
1214;SDS011;597;51.998;5.880;2022-08-04T14:44:31;5.63;;;2.73;;
1214;SDS011;597;51.998;5.880;2022-08-04T14:46:56;9.23;;;3.87;;
1214;SDS011;597;51.998;5.880;2022-08-04T14:49:23;6.90;;;2.63;;
1214;SDS011;597;51.998;5.880;2022-08-04T14:51:53;4.50;;;3.50;;
1214;SDS011;597;51.998;5.880;2022-08-04T14:54:27;7.63;;;3.87;;
1214;SDS011;597;51.998;5.880;2022-08-04T14:56:53;4.63;;;2.73;;
1214;SDS011;597;51.998;5.880;2022-08-04T14:59:19;5.50;;;3.30;;
1214;SDS011;597;51.998;5.880;2022-08-04T15:01:45;11.33;;;3.53;;
1214;SDS011;597;51.998;5.880;2022-08-04T15:04:12;8.60;;;2.60;;
1214;SDS011;597;51.998;5.880;2022-08-04T15:06:41;4.97;;;3.03;;
1214;SDS011;597;51.998;5.880;2022-08-04T15:09:07;3.07;;;2.30;;
1214;SDS011;597;51.998;5.880;2022-08-04T15:11:33;7.83;;;3.10;;
1214;SDS011;597;51.998;5.880;2022-08-04T15:13:59;7.93;;;2.57;;
1214;SDS011;597;51.998;5.880;2022-08-04T15:16:26;2.93;;;2.67;;
1214;SDS011;597;51.998;5.880;2022-08-04T15:18:52;5.80;;;2.80;;
1214;SDS011;597;51.998;5.880;2022-08-04T15:21:17;4.87;;;3.20;;
1214;SDS011;597;51.998;5.880;2022-08-04T15:23:43;5.73;;;2.53;;
1214;SDS011;597;51.998;5.880;2022-08-04T15:26:10;3.50;;;2.97;;
1214;SDS011;597;51.998;5.880;2022-08-04T15:28:37;6.90;;;3.73;;
1214;SDS011;597;51.998;5.880;2022-08-04T15:31:04;6.43;;;2.83;;
1214;SDS011;597;51.998;5.880;2022-08-04T15:33:30;5.47;;;2.80;;
1214;SDS011;597;51.998;5.880;2022-08-04T15:36:08;5.80;;;2.87;;
1214;SDS011;597;51.998;5.880;2022-08-04T15:38:43;5.60;;;3.20;;
1214;SDS011;597;51.998;5.880;2022-08-04T15:41:15;6.43;;;2.97;;
1214;SDS011;597;51.998;5.880;2022-08-04T15:46:09;3.67;;;2.73;;
1214;SDS011;597;51.998;5.880;2022-08-04T15:48:34;8.30;;;3.70;;
1214;SDS011;597;51.998;5.880;2022-08-04T15:51:01;5.90;;;2.90;;
1214;SDS011;597;51.998;5.880;2022-08-04T15:53:29;3.53;;;3.13;;
1214;SDS011;597;51.998;5.880;2022-08-04T15:55:55;10.37;;;3.53;;
1214;SDS011;597;51.998;5.880;2022-08-04T15:58:21;4.60;;;3.30;;
1214;SDS011;597;51.998;5.880;2022-08-04T16:03:39;5.60;;;2.42;;
1214;SDS011;597;51.998;5.880;2022-08-04T16:05:56;5.40;;;3.10;;
1214;SDS011;597;51.998;5.880;2022-08-04T16:08:21;4.20;;;2.60;;
1214;SDS011;597;51.998;5.880;2022-08-04T16:10:47;5.83;;;2.70;;
1214;SDS011;597;51.998;5.880;2022-08-04T16:13:13;6.67;;;2.97;;
1214;SDS011;597;51.998;5.880;2022-08-04T16:18:07;5.90;;;3.40;;
1214;SDS011;597;51.998;5.880;2022-08-04T16:20:34;7.73;;;2.70;;
1214;SDS011;597;51.998;5.880;2022-08-04T16:23:02;5.27;;;2.90;;
1214;SDS011;597;51.998;5.880;2022-08-04T16:25:43;5.10;;;2.40;;
1214;SDS011;597;51.998;5.880;2022-08-04T16:30:58;4.10;;;3.73;;
1214;SDS011;597;51.998;5.880;2022-08-04T16:33:27;3.47;;;2.83;;
1214;SDS011;597;51.998;5.880;2022-08-04T16:35:52;7.37;;;3.40;;
1214;SDS011;597;51.998;5.880;2022-08-04T16:38:19;4.37;;;1.93;;
1214;SDS011;597;51.998;5.880;2022-08-04T16:40:44;5.23;;;2.87;;
1214;SDS011;597;51.998;5.880;2022-08-04T16:43:17;4.13;;;2.80;;
1214;SDS011;597;51.998;5.880;2022-08-04T16:45:48;4.17;;;2.33;;
1214;SDS011;597;51.998;5.880;2022-08-04T16:48:14;3.57;;;2.40;;
1214;SDS011;597;51.998;5.880;2022-08-04T16:53:12;6.10;;;2.87;;
1214;SDS011;597;51.998;5.880;2022-08-04T16:55:38;4.60;;;3.13;;
1214;SDS011;597;51.998;5.880;2022-08-04T16:58:03;5.10;;;2.80;;
1214;SDS011;597;51.998;5.880;2022-08-04T17:00:32;6.30;;;3.20;;
1214;SDS011;597;51.998;5.880;2022-08-04T17:03:02;7.53;;;2.63;;
1214;SDS011;597;51.998;5.880;2022-08-04T17:05:27;4.07;;;2.80;;
1214;SDS011;597;51.998;5.880;2022-08-04T17:07:53;4.60;;;3.13;;
1214;SDS011;597;51.998;5.880;2022-08-04T17:10:19;5.20;;;2.37;;
1214;SDS011;597;51.998;5.880;2022-08-04T17:12:54;5.10;;;2.63;;
1214;SDS011;597;51.998;5.880;2022-08-04T17:15:23;4.53;;;2.53;;
1214;SDS011;597;51.998;5.880;2022-08-04T17:17:48;5.83;;;2.90;;
1214;SDS011;597;51.998;5.880;2022-08-04T17:20:14;3.13;;;2.13;;
1214;SDS011;597;51.998;5.880;2022-08-04T17:22:39;4.57;;;2.23;;
1214;SDS011;597;51.998;5.880;2022-08-04T17:25:05;8.83;;;2.47;;
1214;SDS011;597;51.998;5.880;2022-08-04T17:27:30;6.73;;;2.70;;
1214;SDS011;597;51.998;5.880;2022-08-04T17:29:55;4.10;;;2.57;;
1214;SDS011;597;51.998;5.880;2022-08-04T17:32:21;3.00;;;1.97;;
1214;SDS011;597;51.998;5.880;2022-08-04T17:34:50;2.80;;;2.10;;
1214;SDS011;597;51.998;5.880;2022-08-04T17:37:16;5.90;;;2.57;;
1214;SDS011;597;51.998;5.880;2022-08-04T17:39:42;6.60;;;2.63;;
1214;SDS011;597;51.998;5.880;2022-08-04T17:42:07;4.37;;;2.50;;
1214;SDS011;597;51.998;5.880;2022-08-04T17:44:33;4.60;;;2.27;;
1214;SDS011;597;51.998;5.880;2022-08-04T17:47:01;3.83;;;2.80;;
1214;SDS011;597;51.998;5.880;2022-08-04T17:49:31;9.40;;;2.40;;
1214;SDS011;597;51.998;5.880;2022-08-04T17:51:57;8.50;;;3.17;;
1214;SDS011;597;51.998;5.880;2022-08-04T17:56:50;5.20;;;2.83;;
1214;SDS011;597;51.998;5.880;2022-08-04T18:07:04;3.60;;;2.90;;
1214;SDS011;597;51.998;5.880;2022-08-04T18:09:30;5.57;;;2.80;;
1214;SDS011;597;51.998;5.880;2022-08-04T18:12:06;4.33;;;2.57;;
1214;SDS011;597;51.998;5.880;2022-08-04T18:14:38;3.60;;;2.20;;
1214;SDS011;597;51.998;5.880;2022-08-04T18:17:04;7.27;;;3.27;;
1214;SDS011;597;51.998;5.880;2022-08-04T18:19:30;6.27;;;2.67;;
1214;SDS011;597;51.998;5.880;2022-08-04T18:21:55;6.13;;;2.50;;
1214;SDS011;597;51.998;5.880;2022-08-04T18:24:20;3.67;;;2.33;;
1214;SDS011;597;51.998;5.880;2022-08-04T18:26:45;7.20;;;3.70;;
1214;SDS011;597;51.998;5.880;2022-08-04T18:29:11;3.77;;;2.83;;
1214;SDS011;597;51.998;5.880;2022-08-04T18:31:36;7.20;;;2.97;;
1214;SDS011;597;51.998;5.880;2022-08-04T18:34:02;7.60;;;3.20;;
1214;SDS011;597;51.998;5.880;2022-08-04T18:36:28;6.53;;;2.60;;
1214;SDS011;597;51.998;5.880;2022-08-04T18:38:53;5.33;;;3.57;;
1214;SDS011;597;51.998;5.880;2022-08-04T18:41:19;5.80;;;3.03;;
1214;SDS011;597;51.998;5.880;2022-08-04T18:43:44;5.60;;;2.30;;
1214;SDS011;597;51.998;5.880;2022-08-04T18:46:09;5.20;;;2.63;;
1214;SDS011;597;51.998;5.880;2022-08-04T18:48:34;4.90;;;2.80;;
1214;SDS011;597;51.998;5.880;2022-08-04T18:50:59;9.90;;;2.70;;
1214;SDS011;597;51.998;5.880;2022-08-04T18:53:24;4.53;;;2.47;;
1214;SDS011;597;51.998;5.880;2022-08-04T18:55:50;5.30;;;3.03;;
1214;SDS011;597;51.998;5.880;2022-08-04T18:58:16;5.13;;;2.40;;
1214;SDS011;597;51.998;5.880;2022-08-04T19:00:41;3.70;;;2.90;;
1214;SDS011;597;51.998;5.880;2022-08-04T19:03:06;7.20;;;3.40;;
1214;SDS011;597;51.998;5.880;2022-08-04T19:05:31;4.40;;;2.63;;
1214;SDS011;597;51.998;5.880;2022-08-04T19:07:57;6.67;;;3.17;;
1214;SDS011;597;51.998;5.880;2022-08-04T19:10:22;5.23;;;2.50;;
1214;SDS011;597;51.998;5.880;2022-08-04T19:12:47;4.53;;;2.80;;
1214;SDS011;597;51.998;5.880;2022-08-04T19:15:12;4.37;;;2.83;;
1214;SDS011;597;51.998;5.880;2022-08-04T19:17:43;5.43;;;3.50;;
1214;SDS011;597;51.998;5.880;2022-08-04T19:20:08;5.17;;;2.93;;
1214;SDS011;597;51.998;5.880;2022-08-04T19:22:33;14.73;;;4.10;;
1214;SDS011;597;51.998;5.880;2022-08-04T19:24:59;5.70;;;3.70;;
1214;SDS011;597;51.998;5.880;2022-08-04T19:27:24;5.03;;;3.37;;
1214;SDS011;597;51.998;5.880;2022-08-04T19:29:51;9.50;;;4.13;;
1214;SDS011;597;51.998;5.880;2022-08-04T19:32:16;8.80;;;3.33;;
1214;SDS011;597;51.998;5.880;2022-08-04T19:34:42;4.27;;;3.03;;
1214;SDS011;597;51.998;5.880;2022-08-04T19:37:07;9.00;;;3.80;;
1214;SDS011;597;51.998;5.880;2022-08-04T19:39:33;5.33;;;3.43;;
1214;SDS011;597;51.998;5.880;2022-08-04T19:41:58;4.10;;;3.30;;
1214;SDS011;597;51.998;5.880;2022-08-04T19:44:23;4.23;;;3.23;;